Portada
METAR-TAF:

METAR-TAF

Aeroports :

Illes Cocos, Austràlia

latitud: 12-11S, longitud: 096-49E, altitud: 3 m

Observació

L'informe es va fer fa 42 minuts, a les 14:00 UTC
Vent 13 kt del Est
Temperatura 29°C
Humitat 79%
Pressió 1009 hPa
Visibilitat 10 km o més
Núvols disperses a una alçada de 1900 ft
Núvols disperses a una alçada de 2400 ft
Cel ennuvolat a una alçada de 3900 ft

METAR: YPCC 261400Z AUTO 10013KT 9999 // SCT019 SCT024 BKN039 29/25 Q1009

Hora: 21:12 (14:42 UTC)

Pronòstic

L'informe es va fer fa 3 hores i 32 minuts, a les 11:10 UTC
Pronòstic vàlid del 26 a les 12 UTC al 27 a les 12 UTC
Vent 12 kt del Est/Sud-Est
Visibilitat 10 km o més
Núvols disperses a una alçada de 2000 ft

TAF: YPCC 261110Z 2612/2712 12012KT 9999 SCT020

Observacions i pronòstics meteorològics de més de 4000 aeroports (METAR i TAF).

Les estacions disponibles són els punts grocs i vermells al mapa.

Posi el ratolí al punt desitjat per veure el nom de l'estació.

Feu clic per veure les observacions i els pronòstics meteorològics.

Per canviar el mapa: feu clic els botons verds amb una creu de color negre per apropar; al botó verd amb un guió per allunyar la imatge; o en les fletxes verdes per a mapes adjacents.


METAR-TAF: